Flight Number: EUR2401 Duration: 1:45
Departure: Munich Int'l (EDDM) at 08:30 Distance: 670 Nm
Arrival: Thessaloniki Makedonia (LGTS) at 10:15 Equipment: B737

Weather Information
Munchen, Germany (EDDM) 48-21N 011-47E Jul 15, 2018 - 06:20 PM EDT / 2018.07.15 2220 UTC
Wind: Calm:0
Visibility: greater than 7 mile(s):0 Temperature: 55 F (13 C) Dew Point: 55 F (13 C) Relative Humidity: 100% Pressure (altimeter): 30.00 in. Hg (1016 hPa)
ob: EDDM 152220Z 00000KT CAVOK 13/13 Q1016 NOSIG cycle: 22
Sunrise: 03:32 Sunset: 19:05 (UTC)

Thessaloniki Airport , Greece (LGTS) 40-31N 022-58E 4M Jul 15, 2018 - 06:20 PM EDT / 2018.07.15 2220 UTC
Wind: from the NNW (330 degrees) at 12 MPH (10 KT):0
Visibility: greater than 7 mile(s):0
Sky conditions: partly cloudy Weather: Towering cumulus clouds observed Temperature: 80 F (27 C) Dew Point: 55 F (13 C) Relative Humidity: 41% Pressure (altimeter): 29.88 in. Hg (1012 hPa)
ob: LGTS 152220Z 33010KT 9999 FEW018TCU SCT025 27/13 Q1012 NOSIG cycle: 22
Sunrise: 03:14 Sunset: 17:54 (UTC)

TAF:2018/07/15 22:57 TAF AMD TAF AMD LGTS 152200Z 1522/1618 34015G25KT 9999 FEW030 BECMG 1607/1609 34015KT BECMG 1612/1614 16010KT

Previous Pireps for this route
Date Aircraft Flight time Fuel used Landing rate On time
2015-08-13B73702.0510849-69Yes
(pireps marked green are flown by you)

Route map